World Is Not Enough — 9HZH8 — position and weather

sailwx.info

Track history (hours):
 
Tides and Currents Weather Stations Pressure Air Temp Water Temp Dewpoint Dewpoint Depression Visibility Wind Speed Wind Dir Waves Ship Positions

World Is Not Enough

Last reported at 2017-May-20 06:33 UTC. Time now 2017-Jun-26 17:40 UTC.
Position N 39°28' W 000°20'.
Warning: this ship's position is 37 days out of date.

Length 40 m; draft 1.7 m.

Type: Pleasure craft. MMSI: 256636000.

Date/timePositionNaut miles runAvg speedWind from/ knotsBaromVisibWave heightAir tempDewpointWater temp
2017-May-20 06:33N 39°28' W 000°20'0 2.7
2017-May-20 06:30N 39°28' W 000°20'1 2.4
2017-May-20 05:59N 39°28' W 000°18'3 4.5
2017-May-20 05:21N 39°29' W 000°14'8511.9
2017-May-19 22:15N 39°27' E 001°35'512.0
2017-May-19 21:51N 39°27' E 001°41'412.0
2017-May-19 21:29N 39°27' E 001°47'611.8
2017-May-19 20:59N 39°27' E 001°55'612.0
2017-May-19 20:30N 39°27' E 002°02'612.2
2017-May-19 20:00N 39°27' E 002°10'1012.3
2017-May-19 19:11N 39°27' E 002°23'212.4
2017-May-19 19:00N 39°27' E 002°26'611.2
2017-May-19 18:30N 39°29' E 002°33'5 9.2
2017-May-19 18:00N 39°32' E 002°37'2 4.0
2017-May-19 17:28N 39°34' E 002°38'0 0.0
2017-May-19 16:58N 39°34' E 002°38'0 0.0
2017-May-19 16:28N 39°34' E 002°38'0 0.0
2017-May-19 15:58N 39°34' E 002°38'0 0.0
2017-May-19 15:28N 39°34' E 002°38'0 0.0
2017-May-19 14:58N 39°34' E 002°38'0 0.0
2017-May-19 14:29N 39°34' E 002°38'  
Track history (hours):
 
Tides and Currents Weather Stations Pressure Air Temp Water Temp Dewpoint Dewpoint Depression Visibility Wind Speed Wind Dir Waves Ship Positions

World Is Not Enough

Last reported at 2017-May-20 06:33 UTC. Time now 2017-Jun-26 17:40 UTC.
Position N 39°28' W 000°20'.
Warning: this ship's position is 37 days out of date.

Length 40 m; draft 1.7 m.

Type: Pleasure craft. MMSI: 256636000.

Date/timePositionNaut miles runAvg speedWind from/ knotsBaromVisibWave heightAir tempDewpointWater temp
2017-May-20 06:33N 39°28' W 000°20'0 2.7
2017-May-20 06:30N 39°28' W 000°20'1 2.4
2017-May-20 05:59N 39°28' W 000°18'3 4.5
2017-May-20 05:21N 39°29' W 000°14'8511.9
2017-May-19 22:15N 39°27' E 001°35'512.0
2017-May-19 21:51N 39°27' E 001°41'412.0
2017-May-19 21:29N 39°27' E 001°47'611.8
2017-May-19 20:59N 39°27' E 001°55'612.0
2017-May-19 20:30N 39°27' E 002°02'612.2
2017-May-19 20:00N 39°27' E 002°10'1012.3
2017-May-19 19:11N 39°27' E 002°23'212.4
2017-May-19 19:00N 39°27' E 002°26'611.2
2017-May-19 18:30N 39°29' E 002°33'5 9.2
2017-May-19 18:00N 39°32' E 002°37'2 4.0
2017-May-19 17:28N 39°34' E 002°38'0 0.0
2017-May-19 16:58N 39°34' E 002°38'0 0.0
2017-May-19 16:28N 39°34' E 002°38'0 0.0
2017-May-19 15:58N 39°34' E 002°38'0 0.0
2017-May-19 15:28N 39°34' E 002°38'0 0.0
2017-May-19 14:58N 39°34' E 002°38'0 0.0
2017-May-19 14:29N 39°34' E 002°38'  

Dump ship's entire track history